Accueil
METAR-TAF:

METAR-TAF

Aéroports :

Hettinger Municipal Airport

Hettinger, Dakota du Nord, États-Unis

latitude: 46-00-38N, longitude: 102-38-59W, altitude: 824 m

Observation

Le bulletin a été fait il y a 43 minutes, à 16:21 UTC
Vent 10 kt de ouest
Température 1°C
Humidité 100%
Pression 1022 hPa
Visibilité: 16.1 km
Quelques nuages à une hauteur de 300 ft

METAR: KHEI 141621Z AUTO 26010KT 10SM FEW003 01/01 A3019 RMK AO2 T00110011

Heure: 10:04 (17:04 UTC)


TAF: absent

Observations et prévisions météorologiques de plus de 4000 aéroports (messages METAR et TAF).

Les stations disponibles sont représentées par des disques jaunes et rouges sur la carte.

Passer la souris dessus pour voir le nom de la station.

Cliquer dessus pour voir les observations et prévisions météorologiques.

Pour changer de carte: cliquez sur les boutons verts avec une croix noire pour zoomer, sur le bouton vert avec un tiret pour effectuer un zoom arrière, ou sur les flèches vertes pour les cartes adjacentes.


METAR-TAF: